CTV491 WAOO-WIII
Flight info
| Callsign | CTV491 |
|---|---|
| Flight time | N/A |
| Altitude | 36000 |
| Route | DUNIA W18 AKSOX |
| Aircraft | A320/M-SDE2E3FGHIRWY/LB1 |
Departure
| Time | 2026-05-09 03:46 |
|---|---|
| Airport | Syamsudin Noor International Airport (WAOO) |
Arrival
| Time | N/A |
|---|---|
| Airport | Soekarno-Hatta International Airport (WIII) |
| Time | Latitude | Longitude | Altitude | Speed | Heading |
|---|---|---|---|---|---|
| 2026-05-09 03:32 | -3.43850 | 114.76055 | 73 ft | 0 kts | 10° |
| 2026-05-09 03:38 | -3.43871 | 114.76051 | 73 ft | 4 kts | 7° |
| 2026-05-09 03:38 | -3.43898 | 114.76050 | 68 ft | 4 kts | 358° |
| 2026-05-09 03:38 | -3.43924 | 114.76054 | 73 ft | 4 kts | 332° |
| 2026-05-09 03:39 | -3.43938 | 114.76067 | 69 ft | 1 kts | 281° |
| 2026-05-09 03:39 | -3.43939 | 114.76071 | 73 ft | 0 kts | 281° |
| 2026-05-09 03:39 | -3.43939 | 114.76072 | 73 ft | 0 kts | 281° |
| 2026-05-09 03:40 | -3.43937 | 114.76065 | 73 ft | 4 kts | 281° |
| 2026-05-09 03:40 | -3.43926 | 114.76005 | 67 ft | 13 kts | 282° |
| 2026-05-09 03:41 | -3.43951 | 114.75977 | 66 ft | 5 kts | 189° |
| 2026-05-09 03:41 | -3.43983 | 114.75972 | 73 ft | 6 kts | 189° |
| 2026-05-09 03:41 | -3.44082 | 114.75957 | 69 ft | 15 kts | 189° |
| 2026-05-09 03:41 | -3.44156 | 114.75932 | 75 ft | 9 kts | 221° |
| 2026-05-09 03:42 | -3.44163 | 114.75878 | 69 ft | 8 kts | 281° |
| 2026-05-09 03:42 | -3.44153 | 114.75827 | 74 ft | 7 kts | 281° |
| 2026-05-09 03:42 | -3.44144 | 114.75780 | 73 ft | 6 kts | 281° |
| 2026-05-09 03:42 | -3.44135 | 114.75735 | 65 ft | 10 kts | 281° |
| 2026-05-09 03:43 | -3.44118 | 114.75647 | 70 ft | 16 kts | 281° |
| 2026-05-09 03:43 | -3.44096 | 114.75530 | 71 ft | 18 kts | 281° |
| 2026-05-09 03:43 | -3.44072 | 114.75404 | 66 ft | 16 kts | 280° |
| 2026-05-09 03:43 | -3.44056 | 114.75316 | 65 ft | 9 kts | 280° |
| 2026-05-09 03:44 | -3.44044 | 114.75259 | 65 ft | 7 kts | 289° |
| 2026-05-09 03:44 | -3.44020 | 114.75225 | 63 ft | 5 kts | 311° |
| 2026-05-09 03:44 | -3.44004 | 114.75205 | 72 ft | 2 kts | 294° |
| 2026-05-09 03:44 | -3.44014 | 114.75182 | 70 ft | 3 kts | 203° |
| 2026-05-09 03:45 | -3.44039 | 114.75208 | 66 ft | 6 kts | 104° |
| 2026-05-09 03:45 | -3.44057 | 114.75316 | 71 ft | 44 kts | 100° |
| 2026-05-09 03:45 | -3.44158 | 114.75867 | 70 ft | 114 kts | 101° |
| 2026-05-09 03:45 | -3.44340 | 114.76834 | 87 ft | 166 kts | 101° |
| 2026-05-09 03:46 | -3.44573 | 114.77980 | 704 ft | 168 kts | 99° |
| 2026-05-09 03:46 | -3.44802 | 114.79145 | 1371 ft | 173 kts | 105° |
| 2026-05-09 03:46 | -3.45218 | 114.80324 | 1765 ft | 190 kts | 115° |
| 2026-05-09 03:46 | -3.45961 | 114.81508 | 2006 ft | 214 kts | 130° |
| 2026-05-09 03:47 | -3.47107 | 114.82573 | 2325 ft | 237 kts | 145° |
| 2026-05-09 03:47 | -3.48650 | 114.83349 | 2721 ft | 259 kts | 162° |
| 2026-05-09 03:47 | -3.50459 | 114.83636 | 3394 ft | 268 kts | 180° |
| 2026-05-09 03:47 | -3.52313 | 114.83362 | 4207 ft | 273 kts | 198° |
| 2026-05-09 03:48 | -3.54019 | 114.82516 | 5034 ft | 276 kts | 216° |
| 2026-05-09 03:48 | -3.55388 | 114.81161 | 5850 ft | 280 kts | 234° |
| 2026-05-09 03:48 | -3.56272 | 114.79415 | 6624 ft | 284 kts | 253° |
| 2026-05-09 03:48 | -3.56546 | 114.77450 | 7377 ft | 289 kts | 272° |
| 2026-05-09 03:49 | -3.56238 | 114.75457 | 8117 ft | 292 kts | 282° |
| 2026-05-09 03:49 | -3.55834 | 114.73453 | 8855 ft | 295 kts | 281° |
| 2026-05-09 03:49 | -3.55428 | 114.71428 | 9557 ft | 299 kts | 281° |
| 2026-05-09 03:49 | -3.55024 | 114.69403 | 10250 ft | 302 kts | 281° |
| 2026-05-09 03:50 | -3.54609 | 114.67308 | 10965 ft | 304 kts | 281° |
| 2026-05-09 03:50 | -3.54196 | 114.65222 | 11659 ft | 307 kts | 281° |
| 2026-05-09 03:50 | -3.53777 | 114.63116 | 12336 ft | 310 kts | 281° |
| 2026-05-09 03:50 | -3.53357 | 114.60991 | 12994 ft | 313 kts | 281° |
| 2026-05-09 03:51 | -3.52931 | 114.58844 | 13633 ft | 317 kts | 281° |
| 2026-05-09 03:51 | -3.52497 | 114.56658 | 14059 ft | 328 kts | 281° |
| 2026-05-09 03:51 | -3.52038 | 114.54351 | 14197 ft | 348 kts | 281° |
| 2026-05-09 03:51 | -3.51702 | 114.51932 | 14402 ft | 362 kts | 272° |
| 2026-05-09 03:52 | -3.51841 | 114.49401 | 14858 ft | 367 kts | 261° |
| 2026-05-09 03:52 | -3.52456 | 114.46916 | 15411 ft | 368 kts | 250° |
| 2026-05-09 03:52 | -3.53255 | 114.44561 | 16632 ft | 347 kts | 251° |
| 2026-05-09 03:52 | -3.54010 | 114.42301 | 17531 ft | 341 kts | 250° |
| 2026-05-09 03:53 | -3.54754 | 114.40051 | 18151 ft | 341 kts | 251° |
| 2026-05-09 03:53 | -3.55504 | 114.37788 | 18682 ft | 343 kts | 250° |
| 2026-05-09 03:53 | -3.56262 | 114.35515 | 19183 ft | 346 kts | 250° |
| 2026-05-09 03:53 | -3.57027 | 114.33224 | 19658 ft | 349 kts | 250° |
| 2026-05-09 03:54 | -3.57798 | 114.30911 | 20133 ft | 351 kts | 251° |
| 2026-05-09 03:54 | -3.58575 | 114.28586 | 20600 ft | 354 kts | 250° |
| 2026-05-09 03:54 | -3.59362 | 114.26240 | 21036 ft | 357 kts | 250° |
| 2026-05-09 03:54 | -3.60154 | 114.23878 | 21470 ft | 360 kts | 251° |
| 2026-05-09 03:55 | -3.60949 | 114.21497 | 21906 ft | 362 kts | 251° |
| 2026-05-09 03:55 | -3.61747 | 114.19098 | 22329 ft | 365 kts | 251° |
| 2026-05-09 03:55 | -3.62550 | 114.16677 | 22739 ft | 368 kts | 251° |
| 2026-05-09 03:55 | -3.63357 | 114.14242 | 23148 ft | 370 kts | 251° |
| 2026-05-09 03:56 | -3.64174 | 114.11787 | 23547 ft | 373 kts | 251° |
| 2026-05-09 03:56 | -3.64996 | 114.09320 | 23936 ft | 375 kts | 251° |
| 2026-05-09 03:56 | -3.65823 | 114.06838 | 24308 ft | 377 kts | 251° |
| 2026-05-09 03:56 | -3.66658 | 114.04341 | 24684 ft | 380 kts | 251° |
| 2026-05-09 03:57 | -3.67501 | 114.01826 | 25050 ft | 382 kts | 251° |
| 2026-05-09 03:57 | -3.68346 | 113.99299 | 25404 ft | 384 kts | 251° |
| 2026-05-09 03:57 | -3.69184 | 113.96786 | 25643 ft | 390 kts | 251° |
| 2026-05-09 03:57 | -3.70063 | 113.94151 | 25772 ft | 398 kts | 251° |
| 2026-05-09 03:58 | -3.70936 | 113.91532 | 25895 ft | 406 kts | 251° |
| 2026-05-09 03:58 | -3.71840 | 113.88823 | 26022 ft | 414 kts | 251° |
| 2026-05-09 03:58 | -3.72772 | 113.86030 | 26154 ft | 421 kts | 251° |
| 2026-05-09 03:58 | -3.73697 | 113.83260 | 26281 ft | 428 kts | 251° |
| 2026-05-09 03:59 | -3.74661 | 113.80374 | 26400 ft | 435 kts | 251° |
| 2026-05-09 03:59 | -3.75626 | 113.77478 | 26537 ft | 441 kts | 251° |
| 2026-05-09 03:59 | -3.76601 | 113.74548 | 26660 ft | 447 kts | 251° |
| 2026-05-09 03:59 | -3.77587 | 113.71581 | 26786 ft | 452 kts | 251° |
| 2026-05-09 04:00 | -3.78586 | 113.68576 | 26915 ft | 457 kts | 251° |
| 2026-05-09 04:00 | -3.79579 | 113.65585 | 27070 ft | 461 kts | 251° |
| 2026-05-09 04:00 | -3.80593 | 113.62535 | 27291 ft | 463 kts | 251° |
| 2026-05-09 04:00 | -3.81615 | 113.59467 | 27526 ft | 465 kts | 251° |
| 2026-05-09 04:01 | -3.82651 | 113.56350 | 27760 ft | 467 kts | 251° |
| 2026-05-09 04:01 | -3.83666 | 113.53300 | 27989 ft | 468 kts | 251° |
| 2026-05-09 04:01 | -3.84698 | 113.50204 | 28211 ft | 470 kts | 251° |
| 2026-05-09 04:01 | -3.85733 | 113.47097 | 28434 ft | 471 kts | 251° |
| 2026-05-09 04:02 | -3.86770 | 113.43978 | 28646 ft | 473 kts | 251° |
| 2026-05-09 04:02 | -3.87810 | 113.40846 | 28858 ft | 474 kts | 251° |
| 2026-05-09 04:02 | -3.88851 | 113.37710 | 29073 ft | 476 kts | 251° |
| 2026-05-09 04:02 | -3.89897 | 113.34564 | 29278 ft | 477 kts | 251° |
| 2026-05-09 04:03 | -3.90945 | 113.31404 | 29494 ft | 479 kts | 251° |
| 2026-05-09 04:03 | -3.91995 | 113.28238 | 29706 ft | 480 kts | 251° |
| 2026-05-09 04:03 | -3.93049 | 113.25065 | 29977 ft | 479 kts | 251° |
| 2026-05-09 04:03 | -3.94102 | 113.21902 | 30271 ft | 479 kts | 251° |
| 2026-05-09 04:04 | -3.95154 | 113.18746 | 30552 ft | 478 kts | 251° |
| 2026-05-09 04:04 | -3.96205 | 113.15590 | 30825 ft | 477 kts | 251° |
| 2026-05-09 04:04 | -3.97252 | 113.12440 | 31102 ft | 477 kts | 251° |
| 2026-05-09 04:04 | -3.98308 | 113.09298 | 31383 ft | 476 kts | 251° |
| 2026-05-09 04:05 | -3.99378 | 113.06163 | 31661 ft | 475 kts | 251° |
| 2026-05-09 04:05 | -4.00453 | 113.03041 | 31937 ft | 474 kts | 251° |
| 2026-05-09 04:05 | -4.01528 | 112.99923 | 32210 ft | 474 kts | 251° |
| 2026-05-09 04:05 | -4.02600 | 112.96802 | 32493 ft | 473 kts | 251° |
| 2026-05-09 04:06 | -4.03664 | 112.93688 | 32742 ft | 473 kts | 251° |
| 2026-05-09 04:06 | -4.04728 | 112.90571 | 33006 ft | 472 kts | 251° |
| 2026-05-09 04:06 | -4.05789 | 112.87462 | 33277 ft | 472 kts | 251° |
| 2026-05-09 04:06 | -4.06847 | 112.84357 | 33544 ft | 471 kts | 251° |
| 2026-05-09 04:07 | -4.07905 | 112.81251 | 33805 ft | 470 kts | 251° |
| 2026-05-09 04:07 | -4.08963 | 112.78154 | 34069 ft | 470 kts | 251° |
| 2026-05-09 04:07 | -4.10020 | 112.75061 | 34333 ft | 469 kts | 251° |
| 2026-05-09 04:07 | -4.11077 | 112.71968 | 34586 ft | 469 kts | 251° |
| 2026-05-09 04:08 | -4.12132 | 112.68884 | 34833 ft | 468 kts | 251° |
| 2026-05-09 04:08 | -4.13183 | 112.65805 | 35061 ft | 467 kts | 251° |
| 2026-05-09 04:08 | -4.14230 | 112.62723 | 35290 ft | 467 kts | 251° |
| 2026-05-09 04:08 | -4.15275 | 112.59647 | 35495 ft | 467 kts | 251° |
| 2026-05-09 04:09 | -4.16322 | 112.56569 | 35716 ft | 466 kts | 251° |
| 2026-05-09 04:09 | -4.17370 | 112.53496 | 35859 ft | 466 kts | 251° |
| 2026-05-09 04:09 | -4.19466 | 112.47353 | 35896 ft | 466 kts | 251° |
| 2026-05-09 04:10 | -4.21562 | 112.41213 | 35896 ft | 465 kts | 251° |
| 2026-05-09 04:10 | -4.23657 | 112.35077 | 35897 ft | 466 kts | 251° |
| 2026-05-09 04:11 | -4.25755 | 112.28934 | 35895 ft | 466 kts | 251° |
| 2026-05-09 04:11 | -4.27842 | 112.22792 | 35897 ft | 466 kts | 251° |
| 2026-05-09 04:12 | -4.29927 | 112.16648 | 35897 ft | 466 kts | 251° |
| 2026-05-09 04:12 | -4.32016 | 112.10505 | 35897 ft | 466 kts | 251° |
| 2026-05-09 04:13 | -4.34106 | 112.04365 | 35898 ft | 466 kts | 251° |
| 2026-05-09 04:13 | -4.36189 | 111.98220 | 35897 ft | 466 kts | 251° |
| 2026-05-09 04:14 | -4.38291 | 111.92038 | 35900 ft | 466 kts | 251° |
| 2026-05-09 04:14 | -4.40383 | 111.85900 | 35897 ft | 466 kts | 251° |
| 2026-05-09 04:15 | -4.42466 | 111.79755 | 35895 ft | 466 kts | 251° |
| 2026-05-09 04:15 | -4.44538 | 111.73652 | 35897 ft | 466 kts | 251° |
| 2026-05-09 04:16 | -4.46624 | 111.67509 | 35900 ft | 466 kts | 251° |
| 2026-05-09 04:16 | -4.48710 | 111.61368 | 35896 ft | 466 kts | 251° |
| 2026-05-09 04:17 | -4.50794 | 111.55221 | 35897 ft | 466 kts | 251° |
| 2026-05-09 04:17 | -4.52876 | 111.49073 | 35896 ft | 466 kts | 251° |
| 2026-05-09 04:18 | -4.54957 | 111.42930 | 35897 ft | 466 kts | 251° |
| 2026-05-09 04:18 | -4.57040 | 111.36783 | 35896 ft | 466 kts | 251° |
| 2026-05-09 04:19 | -4.58772 | 111.31674 | 35897 ft | 466 kts | 251° |
| 2026-05-09 04:19 | -4.60857 | 111.25533 | 35896 ft | 466 kts | 251° |
| 2026-05-09 04:20 | -4.62925 | 111.19381 | 35898 ft | 466 kts | 252° |
| 2026-05-09 04:20 | -4.64911 | 111.13199 | 35897 ft | 466 kts | 252° |
| 2026-05-09 04:21 | -4.66869 | 111.07012 | 35887 ft | 466 kts | 252° |
| 2026-05-09 04:22 | -4.69847 | 110.97745 | 35864 ft | 466 kts | 252° |
| 2026-05-09 04:22 | -4.71839 | 110.91563 | 35868 ft | 466 kts | 252° |
| 2026-05-09 04:23 | -4.73829 | 110.85386 | 35874 ft | 466 kts | 252° |
| 2026-05-09 04:23 | -4.75817 | 110.79204 | 35874 ft | 466 kts | 252° |
| 2026-05-09 04:24 | -4.77809 | 110.73018 | 35869 ft | 466 kts | 252° |
| 2026-05-09 04:24 | -4.79805 | 110.66831 | 35860 ft | 466 kts | 252° |
| 2026-05-09 04:25 | -4.81788 | 110.60646 | 35869 ft | 466 kts | 252° |
| 2026-05-09 04:25 | -4.83776 | 110.54458 | 35878 ft | 466 kts | 252° |
| 2026-05-09 04:26 | -4.85763 | 110.48269 | 35877 ft | 466 kts | 252° |
| 2026-05-09 04:26 | -4.87749 | 110.42079 | 35870 ft | 466 kts | 252° |
| 2026-05-09 04:27 | -4.89691 | 110.35879 | 35871 ft | 466 kts | 253° |
| 2026-05-09 04:27 | -4.91578 | 110.29658 | 35883 ft | 466 kts | 253° |
| 2026-05-09 04:28 | -4.93462 | 110.23437 | 35883 ft | 466 kts | 253° |
| 2026-05-09 04:28 | -4.95360 | 110.17221 | 35880 ft | 466 kts | 253° |
| 2026-05-09 04:29 | -4.97265 | 110.11007 | 35870 ft | 466 kts | 253° |
| 2026-05-09 04:29 | -4.99176 | 110.04793 | 35882 ft | 466 kts | 253° |
| 2026-05-09 04:30 | -5.01076 | 109.98577 | 35879 ft | 466 kts | 253° |
| 2026-05-09 04:30 | -5.02976 | 109.92355 | 35883 ft | 467 kts | 253° |
| 2026-05-09 04:31 | -5.04880 | 109.86127 | 35881 ft | 467 kts | 253° |
| 2026-05-09 04:31 | -5.06788 | 109.79896 | 35881 ft | 467 kts | 253° |
| 2026-05-09 04:32 | -5.08694 | 109.73667 | 35876 ft | 467 kts | 253° |
| 2026-05-09 04:32 | -5.10593 | 109.67442 | 35887 ft | 467 kts | 253° |
| 2026-05-09 04:33 | -5.12489 | 109.61201 | 35882 ft | 467 kts | 253° |
| 2026-05-09 04:33 | -5.14386 | 109.54973 | 35873 ft | 467 kts | 253° |
| 2026-05-09 04:34 | -5.16300 | 109.48741 | 35875 ft | 468 kts | 253° |
| 2026-05-09 04:34 | -5.18206 | 109.42507 | 35883 ft | 467 kts | 253° |
| 2026-05-09 04:35 | -5.20102 | 109.36272 | 35878 ft | 467 kts | 253° |
| 2026-05-09 04:35 | -5.21993 | 109.30040 | 35888 ft | 467 kts | 253° |
| 2026-05-09 04:36 | -5.23891 | 109.23805 | 35886 ft | 467 kts | 253° |
| 2026-05-09 04:36 | -5.25794 | 109.17566 | 35887 ft | 468 kts | 253° |
| 2026-05-09 04:37 | -5.27695 | 109.11325 | 35881 ft | 468 kts | 253° |
| 2026-05-09 04:37 | -5.29589 | 109.05089 | 35866 ft | 468 kts | 253° |
| 2026-05-09 04:38 | -5.31567 | 108.98870 | 35881 ft | 468 kts | 252° |
| 2026-05-09 04:38 | -5.33649 | 108.92687 | 35881 ft | 468 kts | 251° |
| 2026-05-09 04:39 | -5.35727 | 108.86506 | 35881 ft | 468 kts | 252° |
| 2026-05-09 04:39 | -5.37781 | 108.80312 | 35881 ft | 468 kts | 252° |
| 2026-05-09 04:40 | -5.39822 | 108.74113 | 35886 ft | 468 kts | 252° |
| 2026-05-09 04:40 | -5.41861 | 108.67918 | 35887 ft | 468 kts | 252° |
| 2026-05-09 04:41 | -5.43912 | 108.61724 | 35889 ft | 467 kts | 252° |
| 2026-05-09 04:41 | -5.45955 | 108.55532 | 35888 ft | 467 kts | 252° |
| 2026-05-09 04:42 | -5.47992 | 108.49339 | 35885 ft | 467 kts | 252° |
| 2026-05-09 04:42 | -5.50023 | 108.43141 | 35887 ft | 467 kts | 252° |
| 2026-05-09 04:43 | -5.52064 | 108.36946 | 35888 ft | 467 kts | 252° |
| 2026-05-09 04:43 | -5.54211 | 108.30795 | 35886 ft | 467 kts | 245° |
| 2026-05-09 04:44 | -5.57793 | 108.25398 | 35888 ft | 467 kts | 226° |
| 2026-05-09 04:44 | -5.62869 | 108.21367 | 35886 ft | 466 kts | 214° |
| 2026-05-09 04:45 | -5.68236 | 108.17698 | 35887 ft | 467 kts | 214° |
| 2026-05-09 04:45 | -5.73560 | 108.14042 | 35241 ft | 466 kts | 214° |
| 2026-05-09 04:45 | -5.76240 | 108.12204 | 34576 ft | 466 kts | 214° |
| 2026-05-09 04:46 | -5.78893 | 108.10383 | 33948 ft | 458 kts | 214° |
| 2026-05-09 04:46 | -5.81508 | 108.08593 | 33058 ft | 451 kts | 213° |
| 2026-05-09 04:46 | -5.84082 | 108.06835 | 32174 ft | 445 kts | 214° |
| 2026-05-09 04:46 | -5.86621 | 108.05099 | 31286 ft | 439 kts | 214° |
| 2026-05-09 04:47 | -5.89132 | 108.03381 | 30413 ft | 434 kts | 214° |
| 2026-05-09 04:47 | -5.91594 | 108.01667 | 29537 ft | 428 kts | 218° |
| 2026-05-09 04:47 | -5.93689 | 107.99586 | 28704 ft | 422 kts | 233° |
| 2026-05-09 04:47 | -5.95178 | 107.97082 | 27856 ft | 416 kts | 247° |
| 2026-05-09 04:48 | -5.96000 | 107.94322 | 26988 ft | 410 kts | 261° |
| 2026-05-09 04:48 | -5.96169 | 107.91484 | 26122 ft | 405 kts | 270° |
| 2026-05-09 04:48 | -5.96170 | 107.88664 | 25244 ft | 401 kts | 270° |
| 2026-05-09 04:48 | -5.96169 | 107.85880 | 24397 ft | 396 kts | 270° |
| 2026-05-09 04:49 | -5.96169 | 107.83130 | 23558 ft | 392 kts | 269° |
| 2026-05-09 04:49 | -5.96170 | 107.80407 | 22745 ft | 387 kts | 269° |
| 2026-05-09 04:49 | -5.96170 | 107.77727 | 21954 ft | 382 kts | 269° |
| 2026-05-09 04:49 | -5.96171 | 107.75073 | 21184 ft | 377 kts | 269° |
| 2026-05-09 04:50 | -5.96170 | 107.72458 | 20420 ft | 372 kts | 269° |
| 2026-05-09 04:50 | -5.96168 | 107.69872 | 19656 ft | 368 kts | 269° |
| 2026-05-09 04:50 | -5.96165 | 107.67332 | 19141 ft | 356 kts | 269° |
| 2026-05-09 04:50 | -5.96163 | 107.64888 | 18665 ft | 345 kts | 269° |
| 2026-05-09 04:51 | -5.96164 | 107.62493 | 18053 ft | 340 kts | 269° |
| 2026-05-09 04:51 | -5.96167 | 107.60134 | 17419 ft | 336 kts | 269° |
| 2026-05-09 04:51 | -5.96169 | 107.57802 | 16788 ft | 332 kts | 269° |
| 2026-05-09 04:51 | -5.96170 | 107.55491 | 16163 ft | 329 kts | 269° |
| 2026-05-09 04:52 | -5.96171 | 107.53206 | 15539 ft | 326 kts | 269° |
| 2026-05-09 04:52 | -5.96172 | 107.50941 | 14941 ft | 322 kts | 269° |
| 2026-05-09 04:52 | -5.96172 | 107.48703 | 14336 ft | 319 kts | 270° |
| 2026-05-09 04:52 | -5.96171 | 107.46488 | 13734 ft | 316 kts | 270° |
| 2026-05-09 04:53 | -5.96167 | 107.44290 | 13131 ft | 313 kts | 270° |
| 2026-05-09 04:53 | -5.96163 | 107.42115 | 12534 ft | 310 kts | 270° |
| 2026-05-09 04:53 | -5.96162 | 107.39991 | 11942 ft | 307 kts | 270° |
| 2026-05-09 04:53 | -5.96163 | 107.37857 | 11333 ft | 304 kts | 270° |
| 2026-05-09 04:54 | -5.96164 | 107.35732 | 10937 ft | 293 kts | 270° |
| 2026-05-09 04:54 | -5.96167 | 107.33758 | 10623 ft | 281 kts | 270° |
| 2026-05-09 04:54 | -5.96167 | 107.31783 | 10117 ft | 277 kts | 270° |
| 2026-05-09 04:54 | -5.96165 | 107.29880 | 9584 ft | 275 kts | 270° |
| 2026-05-09 04:55 | -5.96161 | 107.27962 | 9029 ft | 274 kts | 270° |
| 2026-05-09 04:55 | -5.96156 | 107.26052 | 8468 ft | 273 kts | 270° |
| 2026-05-09 04:55 | -5.96152 | 107.24157 | 7920 ft | 270 kts | 270° |